Bagdad, AZ (86321)

12:33 PM MST on September 02, 2015 (GMT -0700)
Love | | Change Station
CLOSE
Current Station
Airport
Location: Prescott,
Elevation: 5043 ft
Nearby Weather Stations

Elev 5043 ft 34.65 °N, 112.42 °W | Updated 40 minutes ago

Clear
Clear
82 °F
Feels Like 82 °F
N
9
Wind Variable Wind from SSE

Today
High -- | Low -- °F
--% Chance of Precip.
Yesterday
High -- | Low -- °F
Precip. -- in
6:06 AM 6:57 PM
Waning Gibbous, 78% visible
Pressure 29.92 in
Visibility 10.0 miles
Clouds Scattered Clouds 7000 ft
Dew Point 49 °F
Humidity 31%
Rainfall 0.00 in
Snow Depth Not available.
UV 9 out of 12
Pollen 6.50 out of 12
Air Quality Not available.
Flu Activity Not available.
METAR KPRC 021853Z 16008KT 10SM SCT070 28/09 A3017 RMK AO2 SLP131 T02780094 $
Pressure 29.92 in
Visibility 10.0 miles
Clouds Scattered Clouds 7000 ft
Dew Point 49 °F
Humidity 31%
Rainfall 0.00 in
Snow Depth Not available.
UV 9 out of 12
Pollen 6.50 out of 12
Air Quality Not available.
Flu Activity Not available.
METAR KPRC 021853Z 16008KT 10SM SCT070 28/09 A3017 RMK AO2 SLP131 T02780094 $

10-Day Weather Forecast

×

Almanac

Astronomy

Sep. 02, 2015 Rise Set
Actual Time
Civil Twilight
Nautical Twilight
Astronomical Twilight
Moon
Length of Visible Light
Length of Day
Tomorrow will be .
, % of the Moon is Illuminated

Today's Extremes

State Highs State Lows

Community

WunderPhotos

Upload Photos

1,851,799 photos uploaded!

WunderBlogs® & News

Nearby

Air Quality

  Air Quality AQ Index Pollutant
Not available.

Snow Depth

Station Depth Elevation

Earthquake Activity

City Distance Mag. Time & Date
Minimum magnitude displayed is 2.5.

Coastal Water Temperatures

Place Temperature

Stations

Nearby Weather Stations

Station Location Temp. Windchill Dew Point Humidity Wind Precip. Elev Updated Type